sensor_id;sensor_type;location;lat;lon;timestamp;P1;durP1;ratioP1;P2;durP2;ratioP2
7377;SDS011;3730;50.856;12.776;2023-07-20T00:01:12;8.70;;;4.93;;
7377;SDS011;3730;50.856;12.776;2023-07-20T00:03:38;8.77;;;5.13;;
7377;SDS011;3730;50.856;12.776;2023-07-20T00:06:04;6.43;;;4.77;;
7377;SDS011;3730;50.856;12.776;2023-07-20T00:08:30;6.87;;;4.77;;
7377;SDS011;3730;50.856;12.776;2023-07-20T00:10:56;5.43;;;4.73;;
7377;SDS011;3730;50.856;12.776;2023-07-20T00:13:22;7.73;;;5.27;;
7377;SDS011;3730;50.856;12.776;2023-07-20T00:15:48;5.03;;;4.57;;
7377;SDS011;3730;50.856;12.776;2023-07-20T00:18:14;7.67;;;5.20;;
7377;SDS011;3730;50.856;12.776;2023-07-20T00:20:40;7.00;;;5.40;;
7377;SDS011;3730;50.856;12.776;2023-07-20T00:23:06;8.97;;;6.63;;
7377;SDS011;3730;50.856;12.776;2023-07-20T00:25:32;7.33;;;5.50;;
7377;SDS011;3730;50.856;12.776;2023-07-20T00:27:58;6.60;;;5.13;;
7377;SDS011;3730;50.856;12.776;2023-07-20T00:30:24;8.37;;;6.03;;
7377;SDS011;3730;50.856;12.776;2023-07-20T00:32:50;6.10;;;5.50;;
7377;SDS011;3730;50.856;12.776;2023-07-20T00:35:16;11.23;;;6.10;;
7377;SDS011;3730;50.856;12.776;2023-07-20T00:37:42;7.77;;;5.90;;
7377;SDS011;3730;50.856;12.776;2023-07-20T00:40:08;8.10;;;6.13;;
7377;SDS011;3730;50.856;12.776;2023-07-20T00:42:35;7.40;;;5.67;;
7377;SDS011;3730;50.856;12.776;2023-07-20T00:45:01;8.40;;;5.97;;
7377;SDS011;3730;50.856;12.776;2023-07-20T00:47:27;7.77;;;6.67;;
7377;SDS011;3730;50.856;12.776;2023-07-20T00:49:53;8.23;;;6.27;;
7377;SDS011;3730;50.856;12.776;2023-07-20T00:52:20;11.93;;;6.00;;
7377;SDS011;3730;50.856;12.776;2023-07-20T00:54:47;7.60;;;6.37;;
7377;SDS011;3730;50.856;12.776;2023-07-20T00:57:16;6.90;;;6.20;;
7377;SDS011;3730;50.856;12.776;2023-07-20T00:59:43;8.40;;;6.13;;
7377;SDS011;3730;50.856;12.776;2023-07-20T01:02:09;8.20;;;6.00;;
7377;SDS011;3730;50.856;12.776;2023-07-20T01:04:35;9.63;;;6.47;;
7377;SDS011;3730;50.856;12.776;2023-07-20T01:07:17;9.40;;;6.63;;
7377;SDS011;3730;50.856;12.776;2023-07-20T01:09:45;9.63;;;6.70;;
7377;SDS011;3730;50.856;12.776;2023-07-20T01:12:16;9.77;;;6.70;;
7377;SDS011;3730;50.856;12.776;2023-07-20T01:14:44;7.33;;;6.50;;
7377;SDS011;3730;50.856;12.776;2023-07-20T01:17:10;10.03;;;7.27;;
7377;SDS011;3730;50.856;12.776;2023-07-20T01:19:37;12.13;;;6.20;;
7377;SDS011;3730;50.856;12.776;2023-07-20T01:32:29;10.30;;;6.87;;
7377;SDS011;3730;50.856;12.776;2023-07-20T01:34:57;7.97;;;7.07;;
7377;SDS011;3730;50.856;12.776;2023-07-20T01:37:24;10.10;;;6.70;;
7377;SDS011;3730;50.856;12.776;2023-07-20T01:39:53;9.57;;;6.90;;
7377;SDS011;3730;50.856;12.776;2023-07-20T01:42:22;12.23;;;6.93;;
7377;SDS011;3730;50.856;12.776;2023-07-20T01:44:52;9.03;;;6.50;;
7377;SDS011;3730;50.856;12.776;2023-07-20T01:47:18;9.70;;;6.97;;
7377;SDS011;3730;50.856;12.776;2023-07-20T01:49:45;7.60;;;6.53;;
7377;SDS011;3730;50.856;12.776;2023-07-20T01:52:11;10.23;;;6.97;;
7377;SDS011;3730;50.856;12.776;2023-07-20T01:54:37;10.33;;;6.30;;
7377;SDS011;3730;50.856;12.776;2023-07-20T01:57:03;7.73;;;6.50;;
7377;SDS011;3730;50.856;12.776;2023-07-20T01:59:29;9.90;;;7.00;;
7377;SDS011;3730;50.856;12.776;2023-07-20T02:01:55;9.23;;;6.60;;
7377;SDS011;3730;50.856;12.776;2023-07-20T02:04:21;8.30;;;6.33;;
7377;SDS011;3730;50.856;12.776;2023-07-20T02:06:47;10.00;;;6.77;;
7377;SDS011;3730;50.856;12.776;2023-07-20T02:09:13;10.40;;;6.80;;
7377;SDS011;3730;50.856;12.776;2023-07-20T02:11:39;8.53;;;6.53;;
7377;SDS011;3730;50.856;12.776;2023-07-20T02:14:05;12.23;;;6.80;;
7377;SDS011;3730;50.856;12.776;2023-07-20T02:16:31;9.53;;;5.90;;
7377;SDS011;3730;50.856;12.776;2023-07-20T02:18:57;12.43;;;6.63;;
7377;SDS011;3730;50.856;12.776;2023-07-20T02:21:23;8.07;;;6.03;;
7377;SDS011;3730;50.856;12.776;2023-07-20T02:23:49;11.40;;;6.80;;
7377;SDS011;3730;50.856;12.776;2023-07-20T02:26:15;7.20;;;6.10;;
7377;SDS011;3730;50.856;12.776;2023-07-20T02:28:41;7.73;;;5.93;;
7377;SDS011;3730;50.856;12.776;2023-07-20T02:31:07;8.97;;;6.20;;
7377;SDS011;3730;50.856;12.776;2023-07-20T02:33:33;7.77;;;6.37;;
7377;SDS011;3730;50.856;12.776;2023-07-20T02:35:59;7.93;;;6.33;;
7377;SDS011;3730;50.856;12.776;2023-07-20T02:38:25;7.27;;;5.83;;
7377;SDS011;3730;50.856;12.776;2023-07-20T02:40:51;7.93;;;6.10;;
7377;SDS011;3730;50.856;12.776;2023-07-20T02:43:17;7.77;;;6.47;;
7377;SDS011;3730;50.856;12.776;2023-07-20T02:45:43;11.20;;;6.47;;
7377;SDS011;3730;50.856;12.776;2023-07-20T02:48:09;6.70;;;6.10;;
7377;SDS011;3730;50.856;12.776;2023-07-20T02:50:35;7.27;;;5.77;;
7377;SDS011;3730;50.856;12.776;2023-07-20T02:53:01;7.70;;;6.47;;
7377;SDS011;3730;50.856;12.776;2023-07-20T02:55:28;7.00;;;5.47;;
7377;SDS011;3730;50.856;12.776;2023-07-20T02:57:53;8.23;;;5.73;;
7377;SDS011;3730;50.856;12.776;2023-07-20T03:00:19;7.67;;;5.97;;
7377;SDS011;3730;50.856;12.776;2023-07-20T03:02:48;9.37;;;5.40;;
7377;SDS011;3730;50.856;12.776;2023-07-20T03:05:17;7.93;;;6.30;;
7377;SDS011;3730;50.856;12.776;2023-07-20T03:07:43;7.97;;;6.17;;
7377;SDS011;3730;50.856;12.776;2023-07-20T03:10:10;7.90;;;5.97;;
7377;SDS011;3730;50.856;12.776;2023-07-20T03:12:36;8.00;;;6.37;;
7377;SDS011;3730;50.856;12.776;2023-07-20T03:15:02;6.00;;;5.20;;
7377;SDS011;3730;50.856;12.776;2023-07-20T03:17:28;8.43;;;6.13;;
7377;SDS011;3730;50.856;12.776;2023-07-20T03:19:54;6.43;;;5.77;;
7377;SDS011;3730;50.856;12.776;2023-07-20T03:22:20;7.70;;;5.70;;
7377;SDS011;3730;50.856;12.776;2023-07-20T03:24:47;7.17;;;5.90;;
7377;SDS011;3730;50.856;12.776;2023-07-20T03:27:13;6.73;;;5.77;;
7377;SDS011;3730;50.856;12.776;2023-07-20T03:29:39;8.20;;;6.50;;
7377;SDS011;3730;50.856;12.776;2023-07-20T03:32:05;6.07;;;5.37;;
7377;SDS011;3730;50.856;12.776;2023-07-20T03:34:31;7.83;;;5.33;;
7377;SDS011;3730;50.856;12.776;2023-07-20T03:36:57;7.23;;;5.50;;
7377;SDS011;3730;50.856;12.776;2023-07-20T03:39:24;6.50;;;5.90;;
7377;SDS011;3730;50.856;12.776;2023-07-20T03:41:50;6.87;;;6.20;;
7377;SDS011;3730;50.856;12.776;2023-07-20T03:44:16;7.57;;;5.90;;
7377;SDS011;3730;50.856;12.776;2023-07-20T03:46:42;9.67;;;6.10;;
7377;SDS011;3730;50.856;12.776;2023-07-20T03:49:08;6.47;;;5.17;;
7377;SDS011;3730;50.856;12.776;2023-07-20T03:51:35;14.23;;;5.50;;
7377;SDS011;3730;50.856;12.776;2023-07-20T03:54:01;9.20;;;5.70;;
7377;SDS011;3730;50.856;12.776;2023-07-20T03:56:27;9.20;;;5.50;;
7377;SDS011;3730;50.856;12.776;2023-07-20T03:58:53;7.77;;;5.73;;
7377;SDS011;3730;50.856;12.776;2023-07-20T04:01:19;14.00;;;6.43;;
7377;SDS011;3730;50.856;12.776;2023-07-20T04:03:45;7.97;;;5.73;;
7377;SDS011;3730;50.856;12.776;2023-07-20T04:06:11;6.10;;;5.33;;
7377;SDS011;3730;50.856;12.776;2023-07-20T04:08:39;7.53;;;5.63;;
7377;SDS011;3730;50.856;12.776;2023-07-20T04:11:05;6.60;;;5.80;;
7377;SDS011;3730;50.856;12.776;2023-07-20T04:13:31;8.97;;;5.20;;
7377;SDS011;3730;50.856;12.776;2023-07-20T04:16:00;5.93;;;5.20;;
7377;SDS011;3730;50.856;12.776;2023-07-20T04:18:27;10.50;;;5.20;;
7377;SDS011;3730;50.856;12.776;2023-07-20T04:20:53;7.73;;;5.67;;
7377;SDS011;3730;50.856;12.776;2023-07-20T04:23:19;5.87;;;5.37;;
7377;SDS011;3730;50.856;12.776;2023-07-20T04:25:45;9.20;;;5.43;;
7377;SDS011;3730;50.856;12.776;2023-07-20T04:28:12;6.73;;;5.30;;
7377;SDS011;3730;50.856;12.776;2023-07-20T04:30:38;6.97;;;5.40;;
7377;SDS011;3730;50.856;12.776;2023-07-20T04:33:05;6.57;;;5.80;;
7377;SDS011;3730;50.856;12.776;2023-07-20T04:35:48;8.00;;;5.87;;
7377;SDS011;3730;50.856;12.776;2023-07-20T04:38:15;9.27;;;5.40;;
7377;SDS011;3730;50.856;12.776;2023-07-20T04:40:43;5.90;;;5.30;;
7377;SDS011;3730;50.856;12.776;2023-07-20T04:43:09;7.20;;;5.10;;
7377;SDS011;3730;50.856;12.776;2023-07-20T04:45:35;6.63;;;5.17;;
7377;SDS011;3730;50.856;12.776;2023-07-20T04:48:01;7.77;;;6.00;;
7377;SDS011;3730;50.856;12.776;2023-07-20T04:50:27;9.90;;;6.20;;
7377;SDS011;3730;50.856;12.776;2023-07-20T04:52:53;7.23;;;5.27;;
7377;SDS011;3730;50.856;12.776;2023-07-20T04:55:19;7.27;;;5.23;;
7377;SDS011;3730;50.856;12.776;2023-07-20T04:57:45;7.80;;;6.03;;
7377;SDS011;3730;50.856;12.776;2023-07-20T05:00:11;6.47;;;5.87;;
7377;SDS011;3730;50.856;12.776;2023-07-20T05:02:38;9.63;;;6.30;;
7377;SDS011;3730;50.856;12.776;2023-07-20T05:05:04;6.80;;;6.07;;
7377;SDS011;3730;50.856;12.776;2023-07-20T05:07:31;9.87;;;6.40;;
7377;SDS011;3730;50.856;12.776;2023-07-20T05:09:57;7.93;;;5.77;;
7377;SDS011;3730;50.856;12.776;2023-07-20T05:12:23;6.97;;;5.80;;
7377;SDS011;3730;50.856;12.776;2023-07-20T05:14:49;7.87;;;6.20;;
7377;SDS011;3730;50.856;12.776;2023-07-20T05:17:14;7.47;;;5.90;;
7377;SDS011;3730;50.856;12.776;2023-07-20T05:19:40;13.93;;;7.27;;
7377;SDS011;3730;50.856;12.776;2023-07-20T05:22:07;8.87;;;7.03;;
7377;SDS011;3730;50.856;12.776;2023-07-20T05:24:32;12.43;;;7.83;;
7377;SDS011;3730;50.856;12.776;2023-07-20T05:26:58;10.30;;;7.33;;
7377;SDS011;3730;50.856;12.776;2023-07-20T05:29:24;9.00;;;6.67;;
7377;SDS011;3730;50.856;12.776;2023-07-20T05:31:51;5.27;;;4.40;;
7377;SDS011;3730;50.856;12.776;2023-07-20T05:34:17;4.77;;;3.10;;
7377;SDS011;3730;50.856;12.776;2023-07-20T05:36:43;5.80;;;3.70;;
7377;SDS011;3730;50.856;12.776;2023-07-20T05:39:09;3.23;;;2.93;;
7377;SDS011;3730;50.856;12.776;2023-07-20T05:41:35;5.13;;;3.10;;
7377;SDS011;3730;50.856;12.776;2023-07-20T05:44:01;2.60;;;2.40;;
7377;SDS011;3730;50.856;12.776;2023-07-20T05:46:27;4.23;;;3.10;;
7377;SDS011;3730;50.856;12.776;2023-07-20T05:48:53;3.70;;;2.70;;
7377;SDS011;3730;50.856;12.776;2023-07-20T05:51:19;2.90;;;2.70;;
7377;SDS011;3730;50.856;12.776;2023-07-20T05:53:45;4.73;;;2.97;;
7377;SDS011;3730;50.856;12.776;2023-07-20T05:56:11;2.80;;;2.60;;
7377;SDS011;3730;50.856;12.776;2023-07-20T05:58:37;3.33;;;2.63;;
7377;SDS011;3730;50.856;12.776;2023-07-20T06:01:03;5.57;;;3.23;;
7377;SDS011;3730;50.856;12.776;2023-07-20T06:03:31;3.47;;;3.13;;
7377;SDS011;3730;50.856;12.776;2023-07-20T06:06:01;3.27;;;2.70;;
7377;SDS011;3730;50.856;12.776;2023-07-20T06:08:29;6.10;;;3.10;;
7377;SDS011;3730;50.856;12.776;2023-07-20T06:10:55;2.83;;;2.57;;
7377;SDS011;3730;50.856;12.776;2023-07-20T06:13:21;3.00;;;2.70;;
7377;SDS011;3730;50.856;12.776;2023-07-20T06:15:47;3.03;;;2.83;;
7377;SDS011;3730;50.856;12.776;2023-07-20T06:18:13;3.57;;;3.10;;
7377;SDS011;3730;50.856;12.776;2023-07-20T06:20:39;3.30;;;3.00;;
7377;SDS011;3730;50.856;12.776;2023-07-20T06:23:06;3.73;;;3.43;;
7377;SDS011;3730;50.856;12.776;2023-07-20T06:25:32;3.40;;;3.20;;
7377;SDS011;3730;50.856;12.776;2023-07-20T06:27:58;6.37;;;3.47;;
7377;SDS011;3730;50.856;12.776;2023-07-20T06:30:24;3.87;;;3.57;;
7377;SDS011;3730;50.856;12.776;2023-07-20T06:32:50;5.10;;;3.50;;
7377;SDS011;3730;50.856;12.776;2023-07-20T06:35:16;3.87;;;3.20;;
7377;SDS011;3730;50.856;12.776;2023-07-20T06:37:42;3.90;;;3.60;;
7377;SDS011;3730;50.856;12.776;2023-07-20T06:40:08;3.40;;;3.17;;
7377;SDS011;3730;50.856;12.776;2023-07-20T06:42:35;3.23;;;2.93;;
7377;SDS011;3730;50.856;12.776;2023-07-20T06:45:01;4.90;;;2.70;;
7377;SDS011;3730;50.856;12.776;2023-07-20T06:47:27;4.73;;;3.00;;
7377;SDS011;3730;50.856;12.776;2023-07-20T06:49:53;2.43;;;2.30;;
7377;SDS011;3730;50.856;12.776;2023-07-20T06:52:19;3.17;;;2.40;;
7377;SDS011;3730;50.856;12.776;2023-07-20T06:54:45;3.37;;;1.90;;
7377;SDS011;3730;50.856;12.776;2023-07-20T06:57:11;2.10;;;1.83;;
7377;SDS011;3730;50.856;12.776;2023-07-20T06:59:37;2.80;;;2.50;;
7377;SDS011;3730;50.856;12.776;2023-07-20T07:02:04;3.07;;;2.47;;
7377;SDS011;3730;50.856;12.776;2023-07-20T07:04:30;4.17;;;2.40;;
7377;SDS011;3730;50.856;12.776;2023-07-20T07:06:56;4.77;;;3.10;;
7377;SDS011;3730;50.856;12.776;2023-07-20T07:09:22;3.73;;;3.43;;
7377;SDS011;3730;50.856;12.776;2023-07-20T07:11:49;4.07;;;3.47;;
7377;SDS011;3730;50.856;12.776;2023-07-20T07:14:15;3.53;;;3.10;;
7377;SDS011;3730;50.856;12.776;2023-07-20T07:16:41;5.10;;;4.60;;
7377;SDS011;3730;50.856;12.776;2023-07-20T07:19:07;5.57;;;4.83;;
7377;SDS011;3730;50.856;12.776;2023-07-20T07:21:33;7.17;;;5.20;;
7377;SDS011;3730;50.856;12.776;2023-07-20T07:23:59;7.03;;;5.93;;
7377;SDS011;3730;50.856;12.776;2023-07-20T07:26:26;7.23;;;5.37;;
7377;SDS011;3730;50.856;12.776;2023-07-20T07:28:52;5.00;;;4.60;;
7377;SDS011;3730;50.856;12.776;2023-07-20T07:31:18;5.40;;;4.90;;
7377;SDS011;3730;50.856;12.776;2023-07-20T07:33:44;6.80;;;6.10;;
7377;SDS011;3730;50.856;12.776;2023-07-20T07:36:10;6.67;;;5.97;;
7377;SDS011;3730;50.856;12.776;2023-07-20T07:38:36;9.97;;;7.40;;
7377;SDS011;3730;50.856;12.776;2023-07-20T07:41:02;7.20;;;6.60;;
7377;SDS011;3730;50.856;12.776;2023-07-20T07:43:28;7.70;;;7.07;;
7377;SDS011;3730;50.856;12.776;2023-07-20T07:45:54;9.27;;;7.27;;
7377;SDS011;3730;50.856;12.776;2023-07-20T07:48:21;8.27;;;6.97;;
7377;SDS011;3730;50.856;12.776;2023-07-20T07:50:47;7.97;;;7.17;;
7377;SDS011;3730;50.856;12.776;2023-07-20T07:53:14;7.10;;;6.50;;
7377;SDS011;3730;50.856;12.776;2023-07-20T07:55:41;7.23;;;6.37;;
7377;SDS011;3730;50.856;12.776;2023-07-20T07:58:07;7.33;;;6.40;;
7377;SDS011;3730;50.856;12.776;2023-07-20T08:00:33;9.37;;;7.60;;
7377;SDS011;3730;50.856;12.776;2023-07-20T08:02:59;8.23;;;7.43;;
7377;SDS011;3730;50.856;12.776;2023-07-20T08:05:25;9.90;;;7.40;;
7377;SDS011;3730;50.856;12.776;2023-07-20T08:07:51;8.63;;;7.73;;
7377;SDS011;3730;50.856;12.776;2023-07-20T08:10:18;9.60;;;7.90;;
7377;SDS011;3730;50.856;12.776;2023-07-20T08:12:43;7.93;;;7.13;;
7377;SDS011;3730;50.856;12.776;2023-07-20T08:15:10;8.47;;;7.00;;
7377;SDS011;3730;50.856;12.776;2023-07-20T08:17:37;7.80;;;7.00;;
7377;SDS011;3730;50.856;12.776;2023-07-20T08:20:03;8.37;;;7.57;;
7377;SDS011;3730;50.856;12.776;2023-07-20T08:22:30;7.70;;;6.93;;
7377;SDS011;3730;50.856;12.776;2023-07-20T08:24:56;10.77;;;7.47;;
7377;SDS011;3730;50.856;12.776;2023-07-20T08:27:22;8.97;;;7.87;;
7377;SDS011;3730;50.856;12.776;2023-07-20T08:29:48;10.17;;;7.67;;
7377;SDS011;3730;50.856;12.776;2023-07-20T08:32:14;10.50;;;7.00;;
7377;SDS011;3730;50.856;12.776;2023-07-20T08:34:41;8.33;;;7.40;;
7377;SDS011;3730;50.856;12.776;2023-07-20T08:37:07;7.33;;;6.60;;
7377;SDS011;3730;50.856;12.776;2023-07-20T08:39:35;9.27;;;6.60;;
7377;SDS011;3730;50.856;12.776;2023-07-20T08:42:01;7.13;;;6.13;;
7377;SDS011;3730;50.856;12.776;2023-07-20T08:44:29;6.57;;;5.97;;
7377;SDS011;3730;50.856;12.776;2023-07-20T08:46:55;6.50;;;6.00;;
7377;SDS011;3730;50.856;12.776;2023-07-20T08:49:22;6.87;;;6.00;;
7377;SDS011;3730;50.856;12.776;2023-07-20T08:51:48;8.07;;;7.03;;
7377;SDS011;3730;50.856;12.776;2023-07-20T08:54:15;7.03;;;5.83;;
7377;SDS011;3730;50.856;12.776;2023-07-20T08:56:41;6.37;;;5.70;;
7377;SDS011;3730;50.856;12.776;2023-07-20T08:59:10;4.93;;;4.43;;
7377;SDS011;3730;50.856;12.776;2023-07-20T09:01:37;5.37;;;4.60;;
7377;SDS011;3730;50.856;12.776;2023-07-20T09:04:04;5.90;;;4.40;;
7377;SDS011;3730;50.856;12.776;2023-07-20T09:06:30;6.83;;;4.40;;
7377;SDS011;3730;50.856;12.776;2023-07-20T09:08:56;6.07;;;4.27;;
7377;SDS011;3730;50.856;12.776;2023-07-20T09:11:22;5.00;;;4.27;;
7377;SDS011;3730;50.856;12.776;2023-07-20T09:13:52;4.40;;;4.00;;
7377;SDS011;3730;50.856;12.776;2023-07-20T09:16:28;4.43;;;3.70;;
7377;SDS011;3730;50.856;12.776;2023-07-20T09:18:54;4.83;;;4.33;;
7377;SDS011;3730;50.856;12.776;2023-07-20T09:21:23;6.00;;;4.40;;
7377;SDS011;3730;50.856;12.776;2023-07-20T09:23:49;4.67;;;3.97;;
7377;SDS011;3730;50.856;12.776;2023-07-20T09:26:18;5.00;;;4.43;;
7377;SDS011;3730;50.856;12.776;2023-07-20T09:28:49;4.97;;;4.47;;
7377;SDS011;3730;50.856;12.776;2023-07-20T09:31:17;5.17;;;4.33;;
7377;SDS011;3730;50.856;12.776;2023-07-20T09:33:44;4.60;;;4.00;;
7377;SDS011;3730;50.856;12.776;2023-07-20T09:36:11;11.53;;;4.30;;
7377;SDS011;3730;50.856;12.776;2023-07-20T09:38:37;3.60;;;3.30;;
7377;SDS011;3730;50.856;12.776;2023-07-20T09:41:06;4.90;;;3.63;;
7377;SDS011;3730;50.856;12.776;2023-07-20T09:43:33;5.93;;;3.23;;
7377;SDS011;3730;50.856;12.776;2023-07-20T09:45:59;4.13;;;3.20;;
7377;SDS011;3730;50.856;12.776;2023-07-20T09:48:26;4.37;;;3.50;;
7377;SDS011;3730;50.856;12.776;2023-07-20T09:50:52;3.33;;;3.00;;
7377;SDS011;3730;50.856;12.776;2023-07-20T09:53:19;3.40;;;3.10;;
7377;SDS011;3730;50.856;12.776;2023-07-20T09:55:45;5.57;;;3.30;;
7377;SDS011;3730;50.856;12.776;2023-07-20T09:58:15;5.83;;;3.87;;
7377;SDS011;3730;50.856;12.776;2023-07-20T10:00:41;6.30;;;3.83;;
7377;SDS011;3730;50.856;12.776;2023-07-20T10:03:18;4.83;;;3.50;;
7377;SDS011;3730;50.856;12.776;2023-07-20T10:05:47;4.10;;;3.20;;
7377;SDS011;3730;50.856;12.776;2023-07-20T10:08:34;4.67;;;3.40;;
7377;SDS011;3730;50.856;12.776;2023-07-20T10:11:05;3.40;;;3.10;;
7377;SDS011;3730;50.856;12.776;2023-07-20T10:13:32;6.83;;;4.90;;
7377;SDS011;3730;50.856;12.776;2023-07-20T10:16:03;4.47;;;2.97;;
7377;SDS011;3730;50.856;12.776;2023-07-20T10:18:41;4.00;;;3.60;;
7377;SDS011;3730;50.856;12.776;2023-07-20T10:21:07;4.33;;;3.30;;
7377;SDS011;3730;50.856;12.776;2023-07-20T10:23:35;4.30;;;3.50;;
7377;SDS011;3730;50.856;12.776;2023-07-20T10:26:01;4.27;;;3.30;;
7377;SDS011;3730;50.856;12.776;2023-07-20T10:28:28;3.67;;;3.37;;
7377;SDS011;3730;50.856;12.776;2023-07-20T10:30:53;3.70;;;3.17;;
7377;SDS011;3730;50.856;12.776;2023-07-20T10:33:19;10.20;;;8.10;;
7377;SDS011;3730;50.856;12.776;2023-07-20T10:35:52;23.03;;;17.83;;
7377;SDS011;3730;50.856;12.776;2023-07-20T10:38:19;12.27;;;10.57;;
7377;SDS011;3730;50.856;12.776;2023-07-20T10:40:54;6.60;;;3.70;;
7377;SDS011;3730;50.856;12.776;2023-07-20T10:43:20;5.30;;;4.80;;
7377;SDS011;3730;50.856;12.776;2023-07-20T10:45:50;6.33;;;5.23;;
7377;SDS011;3730;50.856;12.776;2023-07-20T10:48:18;6.37;;;5.00;;
7377;SDS011;3730;50.856;12.776;2023-07-20T10:53:59;5.83;;;5.00;;
7377;SDS011;3730;50.856;12.776;2023-07-20T10:56:27;3.83;;;3.37;;
7377;SDS011;3730;50.856;12.776;2023-07-20T10:58:59;5.13;;;4.70;;
7377;SDS011;3730;50.856;12.776;2023-07-20T11:01:28;3.23;;;2.97;;
7377;SDS011;3730;50.856;12.776;2023-07-20T11:03:58;4.93;;;2.90;;
7377;SDS011;3730;50.856;12.776;2023-07-20T11:08:55;3.87;;;3.57;;
7377;SDS011;3730;50.856;12.776;2023-07-20T11:11:35;2.53;;;2.33;;
7377;SDS011;3730;50.856;12.776;2023-07-20T11:14:20;2.67;;;2.47;;
7377;SDS011;3730;50.856;12.776;2023-07-20T11:16:46;7.80;;;4.87;;
7377;SDS011;3730;50.856;12.776;2023-07-20T11:19:23;4.20;;;2.63;;
7377;SDS011;3730;50.856;12.776;2023-07-20T11:21:50;2.60;;;2.40;;
7377;SDS011;3730;50.856;12.776;2023-07-20T11:24:16;8.57;;;2.60;;
7377;SDS011;3730;50.856;12.776;2023-07-20T11:26:43;3.10;;;2.30;;
7377;SDS011;3730;50.856;12.776;2023-07-20T11:29:09;2.73;;;2.33;;
7377;SDS011;3730;50.856;12.776;2023-07-20T11:31:37;2.73;;;2.43;;
7377;SDS011;3730;50.856;12.776;2023-07-20T11:34:03;3.03;;;2.70;;
7377;SDS011;3730;50.856;12.776;2023-07-20T11:36:29;2.67;;;2.23;;
7377;SDS011;3730;50.856;12.776;2023-07-20T11:38:55;2.30;;;2.10;;
7377;SDS011;3730;50.856;12.776;2023-07-20T11:41:21;3.63;;;2.17;;
7377;SDS011;3730;50.856;12.776;2023-07-20T11:43:47;3.07;;;2.77;;
7377;SDS011;3730;50.856;12.776;2023-07-20T11:46:13;5.13;;;1.90;;
7377;SDS011;3730;50.856;12.776;2023-07-20T11:48:41;2.30;;;1.20;;
7377;SDS011;3730;50.856;12.776;2023-07-20T11:51:12;1.63;;;1.20;;
7377;SDS011;3730;50.856;12.776;2023-07-20T11:53:39;1.57;;;1.30;;
7377;SDS011;3730;50.856;12.776;2023-07-20T11:56:05;2.80;;;1.50;;
7377;SDS011;3730;50.856;12.776;2023-07-20T11:58:31;3.37;;;1.50;;
7377;SDS011;3730;50.856;12.776;2023-07-20T12:00:57;1.70;;;1.60;;
7377;SDS011;3730;50.856;12.776;2023-07-20T12:03:23;2.23;;;2.03;;
7377;SDS011;3730;50.856;12.776;2023-07-20T12:05:48;2.80;;;1.93;;
7377;SDS011;3730;50.856;12.776;2023-07-20T12:08:15;2.40;;;1.97;;
7377;SDS011;3730;50.856;12.776;2023-07-20T12:10:41;2.40;;;2.20;;
7377;SDS011;3730;50.856;12.776;2023-07-20T12:13:09;2.50;;;2.30;;
7377;SDS011;3730;50.856;12.776;2023-07-20T12:15:36;2.90;;;2.60;;
7377;SDS011;3730;50.856;12.776;2023-07-20T12:18:02;2.70;;;2.50;;
7377;SDS011;3730;50.856;12.776;2023-07-20T12:20:32;2.33;;;2.13;;
7377;SDS011;3730;50.856;12.776;2023-07-20T12:23:01;2.93;;;2.57;;
7377;SDS011;3730;50.856;12.776;2023-07-20T12:28:00;3.03;;;2.83;;
7377;SDS011;3730;50.856;12.776;2023-07-20T12:30:27;3.37;;;2.80;;
7377;SDS011;3730;50.856;12.776;2023-07-20T12:32:53;3.37;;;3.13;;
7377;SDS011;3730;50.856;12.776;2023-07-20T12:35:21;3.80;;;3.50;;
7377;SDS011;3730;50.856;12.776;2023-07-20T12:37:47;4.07;;;2.80;;
7377;SDS011;3730;50.856;12.776;2023-07-20T12:40:14;3.67;;;3.20;;
7377;SDS011;3730;50.856;12.776;2023-07-20T12:42:40;3.53;;;2.83;;
7377;SDS011;3730;50.856;12.776;2023-07-20T12:45:07;3.17;;;2.97;;
7377;SDS011;3730;50.856;12.776;2023-07-20T12:47:33;3.17;;;2.97;;
7377;SDS011;3730;50.856;12.776;2023-07-20T12:49:59;3.30;;;3.00;;
7377;SDS011;3730;50.856;12.776;2023-07-20T12:52:25;2.87;;;2.67;;
7377;SDS011;3730;50.856;12.776;2023-07-20T12:54:51;2.50;;;2.30;;
7377;SDS011;3730;50.856;12.776;2023-07-20T12:57:17;2.30;;;2.20;;
7377;SDS011;3730;50.856;12.776;2023-07-20T12:59:43;2.03;;;1.90;;
7377;SDS011;3730;50.856;12.776;2023-07-20T13:02:09;3.33;;;2.17;;
7377;SDS011;3730;50.856;12.776;2023-07-20T13:04:35;2.20;;;2.10;;
7377;SDS011;3730;50.856;12.776;2023-07-20T13:07:01;2.67;;;2.10;;
7377;SDS011;3730;50.856;12.776;2023-07-20T13:09:27;2.20;;;2.10;;
7377;SDS011;3730;50.856;12.776;2023-07-20T13:11:53;4.47;;;2.20;;
7377;SDS011;3730;50.856;12.776;2023-07-20T13:14:19;2.90;;;2.57;;
7377;SDS011;3730;50.856;12.776;2023-07-20T13:16:45;2.50;;;2.30;;
7377;SDS011;3730;50.856;12.776;2023-07-20T13:19:11;2.73;;;2.53;;
7377;SDS011;3730;50.856;12.776;2023-07-20T13:21:37;2.50;;;2.30;;
7377;SDS011;3730;50.856;12.776;2023-07-20T13:24:04;3.13;;;2.70;;
7377;SDS011;3730;50.856;12.776;2023-07-20T13:26:30;3.13;;;2.80;;
7377;SDS011;3730;50.856;12.776;2023-07-20T13:28:56;2.77;;;2.57;;
7377;SDS011;3730;50.856;12.776;2023-07-20T13:31:22;2.97;;;2.77;;
7377;SDS011;3730;50.856;12.776;2023-07-20T13:33:48;3.00;;;2.80;;
7377;SDS011;3730;50.856;12.776;2023-07-20T13:36:14;2.60;;;2.40;;
7377;SDS011;3730;50.856;12.776;2023-07-20T13:38:40;2.60;;;2.10;;
7377;SDS011;3730;50.856;12.776;2023-07-20T13:41:06;2.40;;;2.20;;
7377;SDS011;3730;50.856;12.776;2023-07-20T13:43:32;3.67;;;2.10;;
7377;SDS011;3730;50.856;12.776;2023-07-20T13:45:58;1.80;;;1.70;;
7377;SDS011;3730;50.856;12.776;2023-07-20T13:48:24;1.80;;;1.70;;
7377;SDS011;3730;50.856;12.776;2023-07-20T13:50:50;1.90;;;1.80;;
7377;SDS011;3730;50.856;12.776;2023-07-20T13:53:16;1.63;;;1.53;;
7377;SDS011;3730;50.856;12.776;2023-07-20T13:55:42;2.20;;;1.87;;
7377;SDS011;3730;50.856;12.776;2023-07-20T13:58:07;1.70;;;1.60;;
7377;SDS011;3730;50.856;12.776;2023-07-20T14:00:35;1.87;;;1.70;;
7377;SDS011;3730;50.856;12.776;2023-07-20T14:03:01;1.90;;;1.80;;
7377;SDS011;3730;50.856;12.776;2023-07-20T14:05:26;1.90;;;1.80;;
7377;SDS011;3730;50.856;12.776;2023-07-20T14:07:53;1.97;;;1.67;;
7377;SDS011;3730;50.856;12.776;2023-07-20T14:10:19;2.57;;;1.90;;
7377;SDS011;3730;50.856;12.776;2023-07-20T14:12:45;2.13;;;2.03;;
7377;SDS011;3730;50.856;12.776;2023-07-20T14:15:11;1.77;;;1.60;;
7377;SDS011;3730;50.856;12.776;2023-07-20T14:17:37;2.10;;;1.90;;
7377;SDS011;3730;50.856;12.776;2023-07-20T14:20:03;1.90;;;1.80;;
7377;SDS011;3730;50.856;12.776;2023-07-20T14:22:33;2.97;;;2.00;;
7377;SDS011;3730;50.856;12.776;2023-07-20T14:24:59;4.03;;;2.57;;
7377;SDS011;3730;50.856;12.776;2023-07-20T14:27:24;4.80;;;4.40;;
7377;SDS011;3730;50.856;12.776;2023-07-20T14:29:50;1.83;;;1.63;;
7377;SDS011;3730;50.856;12.776;2023-07-20T14:32:15;2.13;;;1.80;;
7377;SDS011;3730;50.856;12.776;2023-07-20T14:34:41;3.10;;;1.80;;
7377;SDS011;3730;50.856;12.776;2023-07-20T14:37:07;1.67;;;1.57;;
7377;SDS011;3730;50.856;12.776;2023-07-20T14:39:33;1.90;;;1.80;;
7377;SDS011;3730;50.856;12.776;2023-07-20T14:41:58;1.50;;;1.40;;
7377;SDS011;3730;50.856;12.776;2023-07-20T14:44:24;2.20;;;2.10;;
7377;SDS011;3730;50.856;12.776;2023-07-20T14:46:50;2.17;;;1.60;;
7377;SDS011;3730;50.856;12.776;2023-07-20T14:49:16;2.73;;;1.70;;
7377;SDS011;3730;50.856;12.776;2023-07-20T14:51:43;1.87;;;1.20;;
7377;SDS011;3730;50.856;12.776;2023-07-20T14:54:11;1.60;;;1.50;;
7377;SDS011;3730;50.856;12.776;2023-07-20T14:56:38;2.13;;;1.57;;
7377;SDS011;3730;50.856;12.776;2023-07-20T14:59:05;1.63;;;1.53;;
7377;SDS011;3730;50.856;12.776;2023-07-20T15:01:31;2.70;;;1.60;;
7377;SDS011;3730;50.856;12.776;2023-07-20T15:03:57;1.30;;;1.30;;
7377;SDS011;3730;50.856;12.776;2023-07-20T15:06:25;1.43;;;1.43;;
7377;SDS011;3730;50.856;12.776;2023-07-20T15:08:51;1.40;;;1.30;;
7377;SDS011;3730;50.856;12.776;2023-07-20T15:11:17;2.43;;;1.50;;
7377;SDS011;3730;50.856;12.776;2023-07-20T15:13:43;1.60;;;1.50;;
7377;SDS011;3730;50.856;12.776;2023-07-20T15:16:09;1.60;;;1.50;;